sensor_id;sensor_type;location;lat;lon;timestamp;P1;durP1;ratioP1;P2;durP2;ratioP2
19193;SDS011;9729;52.296;13.260;2023-02-01T00:00:27;16.77;;;3.10;;
19193;SDS011;9729;52.296;13.260;2023-02-01T00:02:53;18.80;;;3.20;;
19193;SDS011;9729;52.296;13.260;2023-02-01T00:05:20;24.73;;;4.13;;
19193;SDS011;9729;52.296;13.260;2023-02-01T00:07:46;34.17;;;4.33;;
19193;SDS011;9729;52.296;13.260;2023-02-01T00:10:18;29.03;;;5.80;;
19193;SDS011;9729;52.296;13.260;2023-02-01T00:12:44;31.63;;;4.50;;
19193;SDS011;9729;52.296;13.260;2023-02-01T00:15:10;24.63;;;3.80;;
19193;SDS011;9729;52.296;13.260;2023-02-01T00:17:37;31.63;;;5.77;;
19193;SDS011;9729;52.296;13.260;2023-02-01T00:20:04;32.03;;;4.93;;
19193;SDS011;9729;52.296;13.260;2023-02-01T00:22:34;26.77;;;6.07;;
19193;SDS011;9729;52.296;13.260;2023-02-01T00:25:01;29.53;;;4.87;;
19193;SDS011;9729;52.296;13.260;2023-02-01T00:27:29;22.43;;;4.20;;
19193;SDS011;9729;52.296;13.260;2023-02-01T00:29:56;18.30;;;4.60;;
19193;SDS011;9729;52.296;13.260;2023-02-01T00:32:22;31.23;;;5.93;;
19193;SDS011;9729;52.296;13.260;2023-02-01T00:34:51;20.00;;;4.70;;
19193;SDS011;9729;52.296;13.260;2023-02-01T00:37:18;24.80;;;4.60;;
19193;SDS011;9729;52.296;13.260;2023-02-01T00:39:44;27.70;;;4.50;;
19193;SDS011;9729;52.296;13.260;2023-02-01T00:42:13;20.00;;;4.17;;
19193;SDS011;9729;52.296;13.260;2023-02-01T00:44:41;29.87;;;4.37;;
19193;SDS011;9729;52.296;13.260;2023-02-01T00:47:07;22.97;;;4.40;;
19193;SDS011;9729;52.296;13.260;2023-02-01T00:49:36;27.73;;;4.20;;
19193;SDS011;9729;52.296;13.260;2023-02-01T00:52:02;21.20;;;4.00;;
19193;SDS011;9729;52.296;13.260;2023-02-01T00:54:32;17.07;;;2.87;;
19193;SDS011;9729;52.296;13.260;2023-02-01T00:56:59;27.27;;;3.83;;
19193;SDS011;9729;52.296;13.260;2023-02-01T00:59:27;16.27;;;3.17;;
19193;SDS011;9729;52.296;13.260;2023-02-01T01:01:55;17.87;;;3.20;;
19193;SDS011;9729;52.296;13.260;2023-02-01T01:04:21;22.67;;;3.23;;
19193;SDS011;9729;52.296;13.260;2023-02-01T01:06:49;33.40;;;4.80;;
19193;SDS011;9729;52.296;13.260;2023-02-01T01:09:16;17.47;;;3.57;;
19193;SDS011;9729;52.296;13.260;2023-02-01T01:11:44;18.53;;;3.93;;
19193;SDS011;9729;52.296;13.260;2023-02-01T01:14:10;20.67;;;3.80;;
19193;SDS011;9729;52.296;13.260;2023-02-01T01:16:37;30.90;;;4.87;;
19193;SDS011;9729;52.296;13.260;2023-02-01T01:19:05;18.63;;;3.50;;
19193;SDS011;9729;52.296;13.260;2023-02-01T01:21:31;29.00;;;3.70;;
19193;SDS011;9729;52.296;13.260;2023-02-01T01:23:58;20.67;;;4.87;;
19193;SDS011;9729;52.296;13.260;2023-02-01T01:26:26;16.80;;;4.00;;
19193;SDS011;9729;52.296;13.260;2023-02-01T01:28:55;24.33;;;3.33;;
19193;SDS011;9729;52.296;13.260;2023-02-01T01:31:22;18.97;;;4.03;;
19193;SDS011;9729;52.296;13.260;2023-02-01T01:33:50;17.90;;;3.23;;
19193;SDS011;9729;52.296;13.260;2023-02-01T01:36:20;19.73;;;3.60;;
19193;SDS011;9729;52.296;13.260;2023-02-01T01:38:47;22.17;;;4.73;;
19193;SDS011;9729;52.296;13.260;2023-02-01T01:41:15;18.93;;;3.57;;
19193;SDS011;9729;52.296;13.260;2023-02-01T01:43:51;17.00;;;3.33;;
19193;SDS011;9729;52.296;13.260;2023-02-01T01:46:21;30.27;;;5.13;;
19193;SDS011;9729;52.296;13.260;2023-02-01T01:48:50;30.40;;;4.90;;
19193;SDS011;9729;52.296;13.260;2023-02-01T01:51:22;22.47;;;3.90;;
19193;SDS011;9729;52.296;13.260;2023-02-01T01:53:54;30.77;;;4.10;;
19193;SDS011;9729;52.296;13.260;2023-02-01T01:56:23;27.60;;;4.17;;
19193;SDS011;9729;52.296;13.260;2023-02-01T01:58:53;22.87;;;4.50;;
19193;SDS011;9729;52.296;13.260;2023-02-01T02:01:19;29.20;;;4.97;;
19193;SDS011;9729;52.296;13.260;2023-02-01T02:03:49;21.87;;;4.50;;
19193;SDS011;9729;52.296;13.260;2023-02-01T02:06:17;23.53;;;4.93;;
19193;SDS011;9729;52.296;13.260;2023-02-01T02:08:55;22.63;;;3.30;;
19193;SDS011;9729;52.296;13.260;2023-02-01T02:11:21;25.27;;;3.93;;
19193;SDS011;9729;52.296;13.260;2023-02-01T02:13:48;20.10;;;3.40;;
19193;SDS011;9729;52.296;13.260;2023-02-01T02:16:32;17.03;;;3.87;;
19193;SDS011;9729;52.296;13.260;2023-02-01T02:22:17;22.43;;;3.70;;
19193;SDS011;9729;52.296;13.260;2023-02-01T02:25:31;25.03;;;3.70;;
19193;SDS011;9729;52.296;13.260;2023-02-01T02:28:14;20.97;;;3.50;;
19193;SDS011;9729;52.296;13.260;2023-02-01T02:31:12;26.07;;;4.43;;
19193;SDS011;9729;52.296;13.260;2023-02-01T02:33:57;29.37;;;5.50;;
19193;SDS011;9729;52.296;13.260;2023-02-01T02:36:30;27.40;;;5.27;;
19193;SDS011;9729;52.296;13.260;2023-02-01T02:39:03;24.70;;;3.33;;
19193;SDS011;9729;52.296;13.260;2023-02-01T02:41:33;18.97;;;4.07;;
19193;SDS011;9729;52.296;13.260;2023-02-01T02:44:24;26.80;;;5.60;;
19193;SDS011;9729;52.296;13.260;2023-02-01T02:47:16;18.20;;;4.50;;
19193;SDS011;9729;52.296;13.260;2023-02-01T02:49:55;27.80;;;5.50;;
19193;SDS011;9729;52.296;13.260;2023-02-01T02:52:45;21.77;;;4.33;;
19193;SDS011;9729;52.296;13.260;2023-02-01T02:55:30;27.10;;;3.57;;
19193;SDS011;9729;52.296;13.260;2023-02-01T02:57:58;22.27;;;3.93;;
19193;SDS011;9729;52.296;13.260;2023-02-01T03:00:44;19.53;;;4.73;;
19193;SDS011;9729;52.296;13.260;2023-02-01T03:03:29;18.20;;;3.83;;
19193;SDS011;9729;52.296;13.260;2023-02-01T03:06:15;24.70;;;5.27;;
19193;SDS011;9729;52.296;13.260;2023-02-01T03:08:43;25.20;;;4.50;;
19193;SDS011;9729;52.296;13.260;2023-02-01T03:11:10;21.00;;;3.77;;
19193;SDS011;9729;52.296;13.260;2023-02-01T03:13:42;17.30;;;3.43;;
19193;SDS011;9729;52.296;13.260;2023-02-01T03:16:12;19.00;;;3.53;;
19193;SDS011;9729;52.296;13.260;2023-02-01T03:18:44;25.37;;;4.47;;
19193;SDS011;9729;52.296;13.260;2023-02-01T03:21:18;19.10;;;4.30;;
19193;SDS011;9729;52.296;13.260;2023-02-01T03:23:50;24.90;;;4.23;;
19193;SDS011;9729;52.296;13.260;2023-02-01T03:26:18;23.33;;;3.53;;
19193;SDS011;9729;52.296;13.260;2023-02-01T03:28:48;18.80;;;4.13;;
19193;SDS011;9729;52.296;13.260;2023-02-01T03:31:17;27.20;;;4.03;;
19193;SDS011;9729;52.296;13.260;2023-02-01T03:33:43;17.60;;;4.33;;
19193;SDS011;9729;52.296;13.260;2023-02-01T03:36:14;22.30;;;3.73;;
19193;SDS011;9729;52.296;13.260;2023-02-01T03:38:45;25.47;;;4.63;;
19193;SDS011;9729;52.296;13.260;2023-02-01T03:41:17;30.70;;;4.57;;
19193;SDS011;9729;52.296;13.260;2023-02-01T03:43:52;19.90;;;3.67;;
19193;SDS011;9729;52.296;13.260;2023-02-01T03:46:25;36.17;;;4.90;;
19193;SDS011;9729;52.296;13.260;2023-02-01T03:48:59;30.97;;;4.87;;
19193;SDS011;9729;52.296;13.260;2023-02-01T03:51:30;23.63;;;3.80;;
19193;SDS011;9729;52.296;13.260;2023-02-01T03:53:59;21.60;;;4.27;;
19193;SDS011;9729;52.296;13.260;2023-02-01T03:56:28;22.03;;;4.53;;
19193;SDS011;9729;52.296;13.260;2023-02-01T03:58:55;25.60;;;4.23;;
19193;SDS011;9729;52.296;13.260;2023-02-01T04:01:26;26.67;;;4.43;;
19193;SDS011;9729;52.296;13.260;2023-02-01T04:03:54;27.50;;;4.70;;
19193;SDS011;9729;52.296;13.260;2023-02-01T04:06:20;40.27;;;4.87;;
19193;SDS011;9729;52.296;13.260;2023-02-01T04:08:49;37.80;;;5.07;;
19193;SDS011;9729;52.296;13.260;2023-02-01T04:11:17;27.70;;;3.87;;
19193;SDS011;9729;52.296;13.260;2023-02-01T04:13:43;33.53;;;5.57;;
19193;SDS011;9729;52.296;13.260;2023-02-01T04:16:12;27.50;;;4.17;;
19193;SDS011;9729;52.296;13.260;2023-02-01T04:18:38;32.40;;;5.50;;
19193;SDS011;9729;52.296;13.260;2023-02-01T04:21:05;27.27;;;4.97;;
19193;SDS011;9729;52.296;13.260;2023-02-01T04:23:32;19.27;;;4.03;;
19193;SDS011;9729;52.296;13.260;2023-02-01T04:25:58;33.03;;;4.37;;
19193;SDS011;9729;52.296;13.260;2023-02-01T04:28:29;19.70;;;3.97;;
19193;SDS011;9729;52.296;13.260;2023-02-01T04:30:56;27.93;;;4.07;;
19193;SDS011;9729;52.296;13.260;2023-02-01T04:33:23;24.00;;;4.13;;
19193;SDS011;9729;52.296;13.260;2023-02-01T04:35:50;23.20;;;4.33;;
19193;SDS011;9729;52.296;13.260;2023-02-01T04:38:16;23.20;;;4.37;;
19193;SDS011;9729;52.296;13.260;2023-02-01T04:40:43;29.00;;;4.30;;
19193;SDS011;9729;52.296;13.260;2023-02-01T04:43:12;20.23;;;4.07;;
19193;SDS011;9729;52.296;13.260;2023-02-01T04:45:39;32.57;;;5.63;;
19193;SDS011;9729;52.296;13.260;2023-02-01T04:48:06;27.43;;;3.67;;
19193;SDS011;9729;52.296;13.260;2023-02-01T04:50:32;26.27;;;5.10;;
19193;SDS011;9729;52.296;13.260;2023-02-01T04:52:59;22.97;;;4.07;;
19193;SDS011;9729;52.296;13.260;2023-02-01T04:55:25;26.23;;;4.57;;
19193;SDS011;9729;52.296;13.260;2023-02-01T04:57:52;24.27;;;4.40;;
19193;SDS011;9729;52.296;13.260;2023-02-01T05:00:18;29.83;;;4.60;;
19193;SDS011;9729;52.296;13.260;2023-02-01T05:02:46;25.73;;;4.83;;
19193;SDS011;9729;52.296;13.260;2023-02-01T05:05:13;27.80;;;4.80;;
19193;SDS011;9729;52.296;13.260;2023-02-01T05:07:39;25.43;;;4.83;;
19193;SDS011;9729;52.296;13.260;2023-02-01T05:10:06;29.53;;;4.90;;
19193;SDS011;9729;52.296;13.260;2023-02-01T05:12:34;22.00;;;4.17;;
19193;SDS011;9729;52.296;13.260;2023-02-01T05:15:18;31.40;;;4.90;;
19193;SDS011;9729;52.296;13.260;2023-02-01T05:17:44;25.60;;;4.07;;
19193;SDS011;9729;52.296;13.260;2023-02-01T05:20:12;20.03;;;4.13;;
19193;SDS011;9729;52.296;13.260;2023-02-01T05:22:41;31.70;;;5.77;;
19193;SDS011;9729;52.296;13.260;2023-02-01T05:25:08;27.83;;;5.33;;
19193;SDS011;9729;52.296;13.260;2023-02-01T05:27:34;21.13;;;4.50;;
19193;SDS011;9729;52.296;13.260;2023-02-01T05:30:01;16.63;;;4.53;;
19193;SDS011;9729;52.296;13.260;2023-02-01T05:32:28;17.37;;;4.83;;
19193;SDS011;9729;52.296;13.260;2023-02-01T05:34:55;27.27;;;5.07;;
19193;SDS011;9729;52.296;13.260;2023-02-01T05:37:22;27.23;;;6.10;;
19193;SDS011;9729;52.296;13.260;2023-02-01T05:39:49;34.30;;;3.73;;
19193;SDS011;9729;52.296;13.260;2023-02-01T05:42:19;20.50;;;4.20;;
19193;SDS011;9729;52.296;13.260;2023-02-01T05:44:46;21.87;;;3.97;;
19193;SDS011;9729;52.296;13.260;2023-02-01T05:47:12;25.03;;;3.77;;
19193;SDS011;9729;52.296;13.260;2023-02-01T05:49:39;31.40;;;5.07;;
19193;SDS011;9729;52.296;13.260;2023-02-01T05:52:05;21.70;;;3.87;;
19193;SDS011;9729;52.296;13.260;2023-02-01T05:54:35;25.43;;;4.63;;
19193;SDS011;9729;52.296;13.260;2023-02-01T05:57:01;21.83;;;4.73;;
19193;SDS011;9729;52.296;13.260;2023-02-01T05:59:28;22.03;;;4.37;;
19193;SDS011;9729;52.296;13.260;2023-02-01T06:01:54;19.10;;;4.73;;
19193;SDS011;9729;52.296;13.260;2023-02-01T06:04:21;25.50;;;5.23;;
19193;SDS011;9729;52.296;13.260;2023-02-01T06:06:52;25.43;;;5.80;;
19193;SDS011;9729;52.296;13.260;2023-02-01T06:09:19;17.53;;;3.77;;
19193;SDS011;9729;52.296;13.260;2023-02-01T06:11:46;19.07;;;3.37;;
19193;SDS011;9729;52.296;13.260;2023-02-01T06:14:13;28.23;;;5.07;;
19193;SDS011;9729;52.296;13.260;2023-02-01T06:16:39;21.03;;;4.03;;
19193;SDS011;9729;52.296;13.260;2023-02-01T06:19:06;28.73;;;6.00;;
19193;SDS011;9729;52.296;13.260;2023-02-01T06:21:34;28.17;;;4.20;;
19193;SDS011;9729;52.296;13.260;2023-02-01T06:24:01;27.30;;;5.00;;
19193;SDS011;9729;52.296;13.260;2023-02-01T06:26:27;26.10;;;5.17;;
19193;SDS011;9729;52.296;13.260;2023-02-01T06:28:56;22.33;;;4.33;;
19193;SDS011;9729;52.296;13.260;2023-02-01T06:31:22;27.40;;;3.73;;
19193;SDS011;9729;52.296;13.260;2023-02-01T06:33:50;20.97;;;4.43;;
19193;SDS011;9729;52.296;13.260;2023-02-01T06:36:18;29.27;;;4.67;;
19193;SDS011;9729;52.296;13.260;2023-02-01T06:38:46;22.67;;;5.17;;
19193;SDS011;9729;52.296;13.260;2023-02-01T06:41:13;28.07;;;4.70;;
19193;SDS011;9729;52.296;13.260;2023-02-01T06:43:39;23.23;;;5.40;;
19193;SDS011;9729;52.296;13.260;2023-02-01T06:46:08;17.23;;;4.03;;
19193;SDS011;9729;52.296;13.260;2023-02-01T06:48:35;19.63;;;4.10;;
19193;SDS011;9729;52.296;13.260;2023-02-01T06:51:03;19.97;;;3.03;;
19193;SDS011;9729;52.296;13.260;2023-02-01T06:53:41;25.60;;;4.40;;
19193;SDS011;9729;52.296;13.260;2023-02-01T06:56:08;23.63;;;3.90;;
19193;SDS011;9729;52.296;13.260;2023-02-01T06:58:37;23.43;;;3.43;;
19193;SDS011;9729;52.296;13.260;2023-02-01T07:01:04;18.47;;;4.47;;
19193;SDS011;9729;52.296;13.260;2023-02-01T07:03:33;22.83;;;4.37;;
19193;SDS011;9729;52.296;13.260;2023-02-01T07:05:59;20.70;;;4.47;;
19193;SDS011;9729;52.296;13.260;2023-02-01T07:08:33;23.00;;;4.03;;
19193;SDS011;9729;52.296;13.260;2023-02-01T07:11:03;23.10;;;4.63;;
19193;SDS011;9729;52.296;13.260;2023-02-01T07:13:30;20.90;;;4.37;;
19193;SDS011;9729;52.296;13.260;2023-02-01T07:15:59;25.43;;;4.53;;
19193;SDS011;9729;52.296;13.260;2023-02-01T07:18:26;30.17;;;4.77;;
19193;SDS011;9729;52.296;13.260;2023-02-01T07:20:54;24.40;;;4.30;;
19193;SDS011;9729;52.296;13.260;2023-02-01T07:23:22;20.90;;;5.47;;
19193;SDS011;9729;52.296;13.260;2023-02-01T07:25:48;15.93;;;5.20;;
19193;SDS011;9729;52.296;13.260;2023-02-01T07:28:20;15.57;;;3.50;;
19193;SDS011;9729;52.296;13.260;2023-02-01T07:30:47;24.93;;;4.53;;
19193;SDS011;9729;52.296;13.260;2023-02-01T07:33:17;21.20;;;3.90;;
19193;SDS011;9729;52.296;13.260;2023-02-01T07:35:45;22.20;;;5.30;;
19193;SDS011;9729;52.296;13.260;2023-02-01T07:38:19;27.57;;;4.50;;
19193;SDS011;9729;52.296;13.260;2023-02-01T07:40:56;28.77;;;5.93;;
19193;SDS011;9729;52.296;13.260;2023-02-01T07:43:24;17.70;;;4.17;;
19193;SDS011;9729;52.296;13.260;2023-02-01T07:45:50;24.23;;;5.13;;
19193;SDS011;9729;52.296;13.260;2023-02-01T07:48:19;27.33;;;5.03;;
19193;SDS011;9729;52.296;13.260;2023-02-01T07:50:45;28.00;;;4.50;;
19193;SDS011;9729;52.296;13.260;2023-02-01T07:53:11;31.40;;;6.00;;
19193;SDS011;9729;52.296;13.260;2023-02-01T07:55:42;18.60;;;5.13;;
19193;SDS011;9729;52.296;13.260;2023-02-01T07:58:08;31.73;;;5.10;;
19193;SDS011;9729;52.296;13.260;2023-02-01T08:00:35;30.67;;;6.20;;
19193;SDS011;9729;52.296;13.260;2023-02-01T08:03:19;19.97;;;5.10;;
19193;SDS011;9729;52.296;13.260;2023-02-01T08:05:45;24.07;;;6.13;;
19193;SDS011;9729;52.296;13.260;2023-02-01T08:08:11;24.80;;;5.37;;
19193;SDS011;9729;52.296;13.260;2023-02-01T08:10:39;32.53;;;5.90;;
19193;SDS011;9729;52.296;13.260;2023-02-01T08:13:07;24.77;;;6.63;;
19193;SDS011;9729;52.296;13.260;2023-02-01T08:15:42;26.53;;;5.73;;
19193;SDS011;9729;52.296;13.260;2023-02-01T08:18:08;19.10;;;5.07;;
19193;SDS011;9729;52.296;13.260;2023-02-01T08:20:36;19.57;;;5.53;;
19193;SDS011;9729;52.296;13.260;2023-02-01T08:23:07;22.17;;;5.97;;
19193;SDS011;9729;52.296;13.260;2023-02-01T08:25:33;17.97;;;7.37;;
19193;SDS011;9729;52.296;13.260;2023-02-01T08:28:03;22.63;;;5.80;;
19193;SDS011;9729;52.296;13.260;2023-02-01T08:30:30;9.80;;;4.03;;
19193;SDS011;9729;52.296;13.260;2023-02-01T08:32:56;20.83;;;4.67;;
19193;SDS011;9729;52.296;13.260;2023-02-01T08:35:23;16.50;;;6.17;;
19193;SDS011;9729;52.296;13.260;2023-02-01T08:37:49;23.00;;;5.73;;
19193;SDS011;9729;52.296;13.260;2023-02-01T08:40:16;14.17;;;4.30;;
19193;SDS011;9729;52.296;13.260;2023-02-01T08:42:44;16.13;;;4.57;;
19193;SDS011;9729;52.296;13.260;2023-02-01T08:45:23;18.13;;;5.57;;
19193;SDS011;9729;52.296;13.260;2023-02-01T08:47:54;12.43;;;3.97;;
19193;SDS011;9729;52.296;13.260;2023-02-01T08:50:21;13.63;;;4.20;;
19193;SDS011;9729;52.296;13.260;2023-02-01T08:52:48;13.57;;;4.70;;
19193;SDS011;9729;52.296;13.260;2023-02-01T08:55:15;16.03;;;4.90;;
19193;SDS011;9729;52.296;13.260;2023-02-01T08:57:42;26.27;;;5.40;;
19193;SDS011;9729;52.296;13.260;2023-02-01T09:00:10;13.63;;;4.57;;
19193;SDS011;9729;52.296;13.260;2023-02-01T09:02:39;20.13;;;4.53;;
19193;SDS011;9729;52.296;13.260;2023-02-01T09:05:06;15.33;;;4.57;;
19193;SDS011;9729;52.296;13.260;2023-02-01T09:07:35;13.37;;;4.80;;
19193;SDS011;9729;52.296;13.260;2023-02-01T09:10:01;11.33;;;4.67;;
19193;SDS011;9729;52.296;13.260;2023-02-01T09:12:28;12.97;;;4.23;;
19193;SDS011;9729;52.296;13.260;2023-02-01T09:14:55;17.70;;;4.20;;
19193;SDS011;9729;52.296;13.260;2023-02-01T09:17:24;7.13;;;3.63;;
19193;SDS011;9729;52.296;13.260;2023-02-01T09:19:54;13.53;;;4.20;;
19193;SDS011;9729;52.296;13.260;2023-02-01T09:22:20;9.30;;;3.40;;
19193;SDS011;9729;52.296;13.260;2023-02-01T09:24:47;8.87;;;3.27;;
19193;SDS011;9729;52.296;13.260;2023-02-01T09:27:13;9.47;;;3.80;;
19193;SDS011;9729;52.296;13.260;2023-02-01T09:29:40;13.23;;;3.50;;
19193;SDS011;9729;52.296;13.260;2023-02-01T09:32:06;11.37;;;3.83;;
19193;SDS011;9729;52.296;13.260;2023-02-01T09:34:33;12.77;;;4.17;;
19193;SDS011;9729;52.296;13.260;2023-02-01T09:37:01;15.43;;;3.67;;
19193;SDS011;9729;52.296;13.260;2023-02-01T09:39:28;12.97;;;3.67;;
19193;SDS011;9729;52.296;13.260;2023-02-01T09:42:00;11.57;;;2.80;;
19193;SDS011;9729;52.296;13.260;2023-02-01T09:44:46;6.77;;;2.40;;
19193;SDS011;9729;52.296;13.260;2023-02-01T09:47:19;5.47;;;2.83;;
19193;SDS011;9729;52.296;13.260;2023-02-01T09:49:49;6.97;;;2.67;;
19193;SDS011;9729;52.296;13.260;2023-02-01T09:52:22;4.57;;;2.37;;
19193;SDS011;9729;52.296;13.260;2023-02-01T09:54:54;4.80;;;2.10;;
19193;SDS011;9729;52.296;13.260;2023-02-01T09:57:26;4.57;;;1.67;;
19193;SDS011;9729;52.296;13.260;2023-02-01T10:00:09;5.93;;;3.23;;
19193;SDS011;9729;52.296;13.260;2023-02-01T10:02:41;5.57;;;1.93;;
19193;SDS011;9729;52.296;13.260;2023-02-01T10:05:11;4.30;;;2.07;;
19193;SDS011;9729;52.296;13.260;2023-02-01T10:07:41;4.10;;;1.60;;
19193;SDS011;9729;52.296;13.260;2023-02-01T10:10:13;9.90;;;2.90;;
19193;SDS011;9729;52.296;13.260;2023-02-01T10:15:52;10.23;;;2.40;;
19193;SDS011;9729;52.296;13.260;2023-02-01T10:18:32;8.70;;;2.30;;
19193;SDS011;9729;52.296;13.260;2023-02-01T10:21:05;9.63;;;2.13;;
19193;SDS011;9729;52.296;13.260;2023-02-01T10:23:48;5.03;;;1.40;;
19193;SDS011;9729;52.296;13.260;2023-02-01T10:26:20;4.27;;;1.70;;
19193;SDS011;9729;52.296;13.260;2023-02-01T10:28:49;4.57;;;1.83;;
19193;SDS011;9729;52.296;13.260;2023-02-01T10:31:16;6.17;;;1.73;;
19193;SDS011;9729;52.296;13.260;2023-02-01T10:33:44;6.53;;;1.63;;
19193;SDS011;9729;52.296;13.260;2023-02-01T10:36:15;9.03;;;2.00;;
19193;SDS011;9729;52.296;13.260;2023-02-01T10:38:45;8.93;;;1.70;;
19193;SDS011;9729;52.296;13.260;2023-02-01T10:41:14;10.67;;;1.60;;
19193;SDS011;9729;52.296;13.260;2023-02-01T10:43:43;12.30;;;1.97;;
19193;SDS011;9729;52.296;13.260;2023-02-01T10:46:10;7.00;;;1.93;;
19193;SDS011;9729;52.296;13.260;2023-02-01T10:48:39;4.63;;;1.50;;
19193;SDS011;9729;52.296;13.260;2023-02-01T10:51:07;8.07;;;2.10;;
19193;SDS011;9729;52.296;13.260;2023-02-01T10:53:42;9.93;;;2.93;;
19193;SDS011;9729;52.296;13.260;2023-02-01T10:56:18;4.83;;;2.10;;
19193;SDS011;9729;52.296;13.260;2023-02-01T10:58:48;15.47;;;2.47;;
19193;SDS011;9729;52.296;13.260;2023-02-01T11:01:16;11.07;;;2.53;;
19193;SDS011;9729;52.296;13.260;2023-02-01T11:03:44;9.17;;;2.47;;
19193;SDS011;9729;52.296;13.260;2023-02-01T11:06:17;9.10;;;2.80;;
19193;SDS011;9729;52.296;13.260;2023-02-01T11:08:47;12.23;;;2.20;;
19193;SDS011;9729;52.296;13.260;2023-02-01T11:11:15;11.10;;;2.80;;
19193;SDS011;9729;52.296;13.260;2023-02-01T11:13:41;13.70;;;2.23;;
19193;SDS011;9729;52.296;13.260;2023-02-01T11:16:12;9.00;;;1.87;;
19193;SDS011;9729;52.296;13.260;2023-02-01T11:18:42;12.43;;;3.00;;
19193;SDS011;9729;52.296;13.260;2023-02-01T11:21:09;12.60;;;3.40;;
19193;SDS011;9729;52.296;13.260;2023-02-01T11:23:39;9.20;;;2.23;;
19193;SDS011;9729;52.296;13.260;2023-02-01T11:26:12;12.43;;;2.53;;
19193;SDS011;9729;52.296;13.260;2023-02-01T11:28:40;11.73;;;2.63;;
19193;SDS011;9729;52.296;13.260;2023-02-01T11:31:16;12.03;;;2.40;;
19193;SDS011;9729;52.296;13.260;2023-02-01T11:33:48;17.47;;;2.70;;
19193;SDS011;9729;52.296;13.260;2023-02-01T11:36:17;12.33;;;2.73;;
19193;SDS011;9729;52.296;13.260;2023-02-01T11:38:54;10.63;;;2.20;;
19193;SDS011;9729;52.296;13.260;2023-02-01T11:41:41;11.87;;;2.63;;
19193;SDS011;9729;52.296;13.260;2023-02-01T11:44:19;9.67;;;2.30;;
19193;SDS011;9729;52.296;13.260;2023-02-01T11:46:47;12.63;;;2.60;;
19193;SDS011;9729;52.296;13.260;2023-02-01T11:49:18;10.37;;;2.47;;
19193;SDS011;9729;52.296;13.260;2023-02-01T11:51:50;10.50;;;2.60;;
19193;SDS011;9729;52.296;13.260;2023-02-01T11:54:25;14.80;;;2.57;;
19193;SDS011;9729;52.296;13.260;2023-02-01T11:57:03;15.37;;;3.43;;
19193;SDS011;9729;52.296;13.260;2023-02-01T11:59:46;12.63;;;2.63;;
19193;SDS011;9729;52.296;13.260;2023-02-01T12:05:28;10.93;;;2.03;;
19193;SDS011;9729;52.296;13.260;2023-02-01T12:08:13;11.20;;;3.13;;
19193;SDS011;9729;52.296;13.260;2023-02-01T12:10:54;13.27;;;2.47;;
19193;SDS011;9729;52.296;13.260;2023-02-01T12:13:36;9.73;;;2.63;;
19193;SDS011;9729;52.296;13.260;2023-02-01T12:16:17;10.73;;;2.10;;
19193;SDS011;9729;52.296;13.260;2023-02-01T12:19:04;14.77;;;2.43;;
19193;SDS011;9729;52.296;13.260;2023-02-01T12:21:49;15.30;;;2.27;;
19193;SDS011;9729;52.296;13.260;2023-02-01T12:24:36;7.80;;;2.23;;
19193;SDS011;9729;52.296;13.260;2023-02-01T12:27:25;11.80;;;3.00;;
19193;SDS011;9729;52.296;13.260;2023-02-01T12:30:28;15.27;;;2.97;;
19193;SDS011;9729;52.296;13.260;2023-02-01T12:33:16;15.30;;;2.60;;
19193;SDS011;9729;52.296;13.260;2023-02-01T12:35:52;8.03;;;2.10;;
19193;SDS011;9729;52.296;13.260;2023-02-01T12:38:35;9.73;;;2.07;;
19193;SDS011;9729;52.296;13.260;2023-02-01T12:41:18;10.70;;;2.23;;
19193;SDS011;9729;52.296;13.260;2023-02-01T12:43:54;6.13;;;2.17;;
19193;SDS011;9729;52.296;13.260;2023-02-01T12:46:27;5.17;;;2.00;;
19193;SDS011;9729;52.296;13.260;2023-02-01T12:48:59;16.10;;;2.37;;
19193;SDS011;9729;52.296;13.260;2023-02-01T12:51:28;11.93;;;2.20;;
19193;SDS011;9729;52.296;13.260;2023-02-01T12:53:59;8.90;;;2.00;;
19193;SDS011;9729;52.296;13.260;2023-02-01T12:56:28;10.20;;;2.00;;
19193;SDS011;9729;52.296;13.260;2023-02-01T12:58:58;10.37;;;2.63;;
19193;SDS011;9729;52.296;13.260;2023-02-01T13:01:28;13.87;;;1.93;;
19193;SDS011;9729;52.296;13.260;2023-02-01T13:03:59;8.83;;;2.90;;
19193;SDS011;9729;52.296;13.260;2023-02-01T13:06:32;8.17;;;2.60;;
19193;SDS011;9729;52.296;13.260;2023-02-01T13:09:03;15.57;;;2.50;;
19193;SDS011;9729;52.296;13.260;2023-02-01T13:11:34;9.93;;;2.67;;
19193;SDS011;9729;52.296;13.260;2023-02-01T13:14:10;9.80;;;3.60;;
19193;SDS011;9729;52.296;13.260;2023-02-01T13:16:44;10.77;;;2.93;;
19193;SDS011;9729;52.296;13.260;2023-02-01T13:19:16;11.20;;;2.57;;
19193;SDS011;9729;52.296;13.260;2023-02-01T13:21:45;12.77;;;2.57;;
19193;SDS011;9729;52.296;13.260;2023-02-01T13:24:20;13.67;;;2.47;;
19193;SDS011;9729;52.296;13.260;2023-02-01T13:26:54;9.30;;;3.13;;
19193;SDS011;9729;52.296;13.260;2023-02-01T13:29:21;8.83;;;2.00;;
19193;SDS011;9729;52.296;13.260;2023-02-01T13:31:55;8.77;;;3.43;;
19193;SDS011;9729;52.296;13.260;2023-02-01T13:37:33;10.57;;;2.10;;
19193;SDS011;9729;52.296;13.260;2023-02-01T13:40:16;13.30;;;3.17;;
19193;SDS011;9729;52.296;13.260;2023-02-01T13:42:49;16.60;;;2.90;;
19193;SDS011;9729;52.296;13.260;2023-02-01T13:45:19;18.20;;;3.83;;
19193;SDS011;9729;52.296;13.260;2023-02-01T13:47:48;18.60;;;3.63;;
19193;SDS011;9729;52.296;13.260;2023-02-01T13:50:20;16.27;;;4.33;;
19193;SDS011;9729;52.296;13.260;2023-02-01T13:52:51;14.57;;;4.03;;
19193;SDS011;9729;52.296;13.260;2023-02-01T13:55:26;13.03;;;3.13;;
19193;SDS011;9729;52.296;13.260;2023-02-01T13:58:03;9.67;;;2.40;;
19193;SDS011;9729;52.296;13.260;2023-02-01T14:00:32;13.40;;;2.90;;
19193;SDS011;9729;52.296;13.260;2023-02-01T14:03:09;17.13;;;2.77;;
19193;SDS011;9729;52.296;13.260;2023-02-01T14:05:54;10.80;;;2.33;;
19193;SDS011;9729;52.296;13.260;2023-02-01T14:08:25;9.23;;;2.33;;
19193;SDS011;9729;52.296;13.260;2023-02-01T14:11:03;21.53;;;3.77;;
19193;SDS011;9729;52.296;13.260;2023-02-01T14:13:30;15.30;;;2.50;;
19193;SDS011;9729;52.296;13.260;2023-02-01T14:16:13;12.67;;;3.10;;
19193;SDS011;9729;52.296;13.260;2023-02-01T14:18:58;15.23;;;3.43;;
19193;SDS011;9729;52.296;13.260;2023-02-01T14:21:26;11.93;;;2.83;;
19193;SDS011;9729;52.296;13.260;2023-02-01T14:23:56;15.00;;;3.83;;
19193;SDS011;9729;52.296;13.260;2023-02-01T14:26:26;12.03;;;3.83;;
19193;SDS011;9729;52.296;13.260;2023-02-01T14:29:13;14.17;;;3.03;;
19193;SDS011;9729;52.296;13.260;2023-02-01T14:31:51;16.00;;;2.73;;
19193;SDS011;9729;52.296;13.260;2023-02-01T14:34:26;14.37;;;3.07;;
19193;SDS011;9729;52.296;13.260;2023-02-01T14:36:58;10.07;;;2.97;;
19193;SDS011;9729;52.296;13.260;2023-02-01T14:39:30;7.83;;;2.10;;
19193;SDS011;9729;52.296;13.260;2023-02-01T14:42:05;17.30;;;3.57;;
19193;SDS011;9729;52.296;13.260;2023-02-01T14:44:45;14.27;;;3.27;;
19193;SDS011;9729;52.296;13.260;2023-02-01T14:50:08;16.13;;;4.90;;
19193;SDS011;9729;52.296;13.260;2023-02-01T14:52:39;14.13;;;3.70;;
19193;SDS011;9729;52.296;13.260;2023-02-01T14:55:09;12.87;;;3.60;;
19193;SDS011;9729;52.296;13.260;2023-02-01T14:57:38;20.27;;;3.43;;
19193;SDS011;9729;52.296;13.260;2023-02-01T15:00:14;8.47;;;2.83;;
19193;SDS011;9729;52.296;13.260;2023-02-01T15:02:45;12.80;;;3.80;;
19193;SDS011;9729;52.296;13.260;2023-02-01T15:05:27;8.53;;;2.53;;
19193;SDS011;9729;52.296;13.260;2023-02-01T15:07:57;10.43;;;2.23;;
19193;SDS011;9729;52.296;13.260;2023-02-01T15:10:26;12.27;;;2.90;;
19193;SDS011;9729;52.296;13.260;2023-02-01T15:12:52;12.67;;;2.03;;